createdAt,value
2017-05-10T00:00:30.427Z,14.17
2017-05-10T00:02:59.415Z,14.47
2017-05-10T00:05:28.396Z,14.38
2017-05-10T00:07:57.370Z,14.60
2017-05-10T00:10:27.429Z,14.37
2017-05-10T00:12:56.423Z,13.90
2017-05-10T00:15:25.415Z,13.42
2017-05-10T00:17:54.398Z,14.20
2017-05-10T00:20:23.350Z,14.43
2017-05-10T00:22:53.427Z,13.80
2017-05-10T00:25:22.345Z,13.43
2017-05-10T00:27:52.057Z,14.12
2017-05-10T00:30:21.042Z,13.33
2017-05-10T00:32:50.778Z,15.25
2017-05-10T00:35:20.065Z,15.13
2017-05-10T00:37:49.022Z,12.97
2017-05-10T00:40:18.018Z,14.50
2017-05-10T00:42:46.986Z,14.57
2017-05-10T00:45:15.933Z,15.13
2017-05-10T00:47:45.286Z,14.38
2017-05-10T00:50:14.275Z,16.08
2017-05-10T00:52:43.227Z,16.53
2017-05-10T00:55:12.552Z,14.67
2017-05-10T00:57:41.575Z,14.75
2017-05-10T01:00:10.542Z,15.83
2017-05-10T01:02:39.885Z,15.03
2017-05-10T01:05:09.596Z,14.70
2017-05-10T01:07:38.548Z,14.35
2017-05-10T01:10:07.516Z,14.83
2017-05-10T01:12:36.493Z,13.47
2017-05-10T01:15:05.758Z,13.88
2017-05-10T01:17:35.494Z,15.67
2017-05-10T01:20:04.436Z,13.40
2017-05-10T01:22:33.714Z,13.70
2017-05-10T01:25:02.674Z,13.97
2017-05-10T01:27:31.618Z,14.52
2017-05-10T01:30:00.621Z,16.37
2017-05-10T01:32:30.320Z,11.73
2017-05-10T01:35:00.306Z,12.70
2017-05-10T01:37:29.261Z,15.37
2017-05-10T01:39:58.213Z,17.77
2017-05-10T01:42:27.182Z,18.73
2017-05-10T01:44:56.138Z,21.53
2017-05-10T01:47:25.462Z,22.63
2017-05-10T01:49:54.429Z,19.97
2017-05-10T01:52:23.396Z,21.23
2017-05-10T01:54:52.620Z,20.08
2017-05-10T01:57:21.561Z,17.38
2017-05-10T01:59:50.559Z,17.10
2017-05-10T02:02:20.277Z,18.25
2017-05-10T02:04:49.991Z,18.95
2017-05-10T02:07:19.978Z,21.33
2017-05-10T02:09:48.944Z,19.55
2017-05-10T02:12:17.905Z,19.60
2017-05-10T02:14:47.246Z,19.78
2017-05-10T02:17:16.184Z,19.22
2017-05-10T02:19:45.149Z,20.28
2017-05-10T02:22:15.627Z,20.25
2017-05-10T02:24:44.587Z,20.37
2017-05-10T02:27:13.939Z,18.08
2017-05-10T02:29:42.914Z,22.95
2017-05-10T02:32:11.891Z,21.90
2017-05-10T02:34:41.120Z,19.38
2017-05-10T02:37:10.073Z,19.52
2017-05-10T02:39:39.043Z,20.78
2017-05-10T02:42:08.287Z,19.70
2017-05-10T02:44:37.235Z,18.12
2017-05-10T02:47:06.190Z,20.18
2017-05-10T02:49:35.163Z,23.65
2017-05-10T02:52:04.112Z,21.85
2017-05-10T02:54:33.380Z,22.27
2017-05-10T02:57:03.079Z,19.85
2017-05-10T02:59:32.018Z,23.52
2017-05-10T03:02:01.273Z,21.77
2017-05-10T03:04:30.890Z,21.73
2017-05-10T03:06:59.907Z,21.77
2017-05-10T03:09:28.890Z,22.10
2017-05-10T03:11:57.830Z,21.18
2017-05-10T03:14:27.123Z,19.75
2017-05-10T03:16:56.073Z,21.60
2017-05-10T03:19:25.040Z,20.88
2017-05-10T03:21:55.442Z,21.20
2017-05-10T03:24:24.393Z,19.97
2017-05-10T03:26:53.713Z,19.90
2017-05-10T03:29:22.687Z,18.58
2017-05-10T03:31:51.660Z,27.03
2017-05-10T03:34:21.722Z,20.57
2017-05-10T03:36:50.632Z,22.78
2017-05-10T03:39:20.353Z,21.28
2017-05-10T03:41:50.097Z,22.18
2017-05-10T03:44:19.071Z,19.98
2017-05-10T03:46:48.347Z,19.12
2017-05-10T03:49:17.386Z,20.18
2017-05-10T03:51:46.356Z,21.33
2017-05-10T03:54:15.362Z,21.58
2017-05-10T03:56:44.323Z,21.42
2017-05-10T03:59:13.592Z,24.92
2017-05-10T04:01:42.565Z,18.32
2017-05-10T04:04:11.551Z,20.43
2017-05-10T04:06:40.543Z,19.33
2017-05-10T04:09:09.592Z,19.80
2017-05-10T04:11:38.881Z,19.87
2017-05-10T04:14:08.600Z,20.08
2017-05-10T04:16:38.495Z,18.73
2017-05-10T04:19:08.110Z,18.37
2017-05-10T04:21:37.098Z,26.22
2017-05-10T04:24:07.175Z,19.02
2017-05-10T04:26:36.152Z,20.03
2017-05-10T04:29:05.097Z,18.30
2017-05-10T04:31:34.083Z,19.28
2017-05-10T04:34:03.987Z,19.25
2017-05-10T04:36:34.064Z,19.78
2017-05-10T04:39:03.021Z,20.67
2017-05-10T04:41:31.993Z,16.32
2017-05-10T04:44:01.716Z,18.78
2017-05-10T04:46:30.680Z,16.93
2017-05-10T04:49:00.771Z,16.17
2017-05-10T04:51:29.725Z,14.35
2017-05-10T04:53:58.685Z,15.88
2017-05-10T04:56:28.765Z,15.38
2017-05-10T04:58:57.740Z,16.17
2017-05-10T05:01:26.712Z,12.92
2017-05-10T05:03:55.688Z,13.60
2017-05-10T05:06:24.640Z,16.65
2017-05-10T05:08:54.028Z,12.03
2017-05-10T05:11:23.002Z,13.10
2017-05-10T05:13:52.019Z,13.40
2017-05-10T05:16:21.307Z,12.90
2017-05-10T05:18:50.226Z,12.47
2017-05-10T05:21:19.899Z,11.00
2017-05-10T05:23:48.942Z,12.43
2017-05-10T05:26:17.897Z,11.85
2017-05-10T05:28:47.188Z,11.92
2017-05-10T05:31:16.157Z,11.33
2017-05-10T05:33:45.106Z,11.07
2017-05-10T05:36:17.376Z,11.62
2017-05-10T05:38:47.152Z,11.38
2017-05-10T05:41:16.427Z,12.17
2017-05-10T05:43:45.367Z,11.82
2017-05-10T05:46:15.069Z,10.85
2017-05-10T05:48:45.318Z,11.62
2017-05-10T05:51:14.286Z,10.63
2017-05-10T05:53:44.008Z,11.92
2017-05-10T05:56:13.362Z,10.33
2017-05-10T05:58:42.322Z,9.53
2017-05-10T06:01:11.276Z,9.27
2017-05-10T06:03:41.286Z,9.27
2017-05-10T06:06:10.286Z,8.40
2017-05-10T06:08:39.977Z,9.30
2017-05-10T06:11:08.960Z,10.05
2017-05-10T06:13:37.910Z,9.12
2017-05-10T06:16:07.260Z,9.97
2017-05-10T06:18:36.971Z,9.92
2017-05-10T06:21:05.925Z,9.48
2017-05-10T06:23:34.893Z,9.47
2017-05-10T06:26:03.846Z,8.08
2017-05-10T06:28:33.482Z,7.95
2017-05-10T06:31:02.471Z,8.30
2017-05-10T06:33:31.423Z,8.85
2017-05-10T06:36:00.692Z,8.42
2017-05-10T06:38:29.641Z,8.38
2017-05-10T06:40:58.636Z,8.67
2017-05-10T06:43:27.608Z,8.28
2017-05-10T06:45:57.318Z,10.38
2017-05-10T06:48:27.406Z,9.80
2017-05-10T06:50:56.359Z,10.30
2017-05-10T06:53:25.335Z,12.55
2017-05-10T06:55:55.150Z,13.03
2017-05-10T06:58:24.115Z,11.27
2017-05-10T07:00:54.107Z,11.08
2017-05-10T07:03:23.063Z,11.32
2017-05-10T07:05:52.012Z,12.00
2017-05-10T07:08:23.660Z,11.47
2017-05-10T07:10:53.349Z,10.37
2017-05-10T07:13:23.242Z,12.10
2017-05-10T07:15:52.207Z,11.77
2017-05-10T07:18:21.189Z,12.62
2017-05-10T07:20:50.502Z,10.77
2017-05-10T07:23:19.469Z,11.28
2017-05-10T07:25:48.459Z,14.47
2017-05-10T07:28:17.438Z,11.22
2017-05-10T07:30:47.151Z,9.88
2017-05-10T07:33:17.228Z,8.88
2017-05-10T07:35:46.203Z,9.30
2017-05-10T07:38:15.155Z,10.37
2017-05-10T07:40:44.401Z,10.32
2017-05-10T07:43:13.349Z,9.43
2017-05-10T07:45:42.342Z,10.62
2017-05-10T07:48:11.291Z,12.33
2017-05-10T07:50:40.576Z,10.43
2017-05-10T07:53:10.485Z,11.00
2017-05-10T07:55:39.447Z,9.80
2017-05-10T07:58:08.417Z,9.90
2017-05-10T08:00:37.381Z,9.02
2017-05-10T08:03:06.752Z,9.55
2017-05-10T08:05:35.709Z,9.67
2017-05-10T08:08:04.689Z,9.97
2017-05-10T08:10:33.675Z,10.42
2017-05-10T08:13:03.263Z,10.15
2017-05-10T08:15:32.998Z,9.88
2017-05-10T08:18:01.975Z,9.30
2017-05-10T08:20:32.291Z,11.70
2017-05-10T08:23:01.997Z,12.70
2017-05-10T08:25:31.700Z,10.62
2017-05-10T08:28:01.416Z,10.77
2017-05-10T08:30:31.495Z,11.82
2017-05-10T08:33:00.482Z,9.90
2017-05-10T08:35:29.481Z,9.85
2017-05-10T08:37:58.466Z,9.52
2017-05-10T08:40:27.430Z,12.68
2017-05-10T08:42:56.419Z,10.37
2017-05-10T08:45:25.384Z,11.60
2017-05-10T08:47:54.398Z,12.62
2017-05-10T08:50:23.392Z,11.42
2017-05-10T08:52:52.717Z,11.18
2017-05-10T08:55:21.681Z,12.12
2017-05-10T08:57:50.660Z,12.43
2017-05-10T09:00:20.013Z,11.25
2017-05-10T09:02:48.993Z,10.98
2017-05-10T09:05:17.963Z,10.08
2017-05-10T09:07:47.277Z,8.58
2017-05-10T09:10:16.252Z,10.87
2017-05-10T09:12:45.235Z,11.13
2017-05-10T09:15:14.235Z,12.57
2017-05-10T09:17:43.203Z,11.13
2017-05-10T09:20:12.535Z,11.48
2017-05-10T09:22:41.511Z,11.82
2017-05-10T09:25:10.465Z,11.35
2017-05-10T09:27:40.179Z,9.03
2017-05-10T09:30:09.209Z,9.82
2017-05-10T09:32:38.185Z,9.75
2017-05-10T09:35:07.807Z,10.42
2017-05-10T09:37:37.112Z,13.05
2017-05-10T09:40:06.082Z,11.72
2017-05-10T09:42:35.053Z,9.92
2017-05-10T09:45:04.054Z,9.47
2017-05-10T09:47:33.013Z,10.20
2017-05-10T09:50:02.769Z,10.87
2017-05-10T09:52:31.753Z,10.64
2017-05-10T09:55:00.736Z,10.50
2017-05-10T09:57:29.698Z,10.00
2017-05-10T09:59:59.802Z,10.52
2017-05-10T10:02:28.779Z,9.76
2017-05-10T10:04:57.732Z,10.62
2017-05-10T10:07:26.777Z,10.32
2017-05-10T10:09:55.725Z,8.76
2017-05-10T10:12:24.988Z,7.80
2017-05-10T10:14:54.703Z,7.00
2017-05-10T10:17:24.629Z,7.90
2017-05-10T10:19:53.653Z,7.00
2017-05-10T10:22:22.612Z,8.16
2017-05-10T10:24:51.596Z,6.96
2017-05-10T10:27:20.599Z,7.78
2017-05-10T10:29:49.841Z,7.18
2017-05-10T10:32:18.851Z,6.88
2017-05-10T10:34:48.563Z,7.78
2017-05-10T10:37:18.633Z,7.00
2017-05-10T10:39:47.589Z,8.14
2017-05-10T10:42:16.552Z,7.88
2017-05-10T10:44:46.904Z,7.92
2017-05-10T10:47:16.770Z,7.56
2017-05-10T10:49:45.738Z,7.44
2017-05-10T10:52:16.072Z,7.38
2017-05-10T10:54:45.022Z,9.46
2017-05-10T10:57:14.354Z,8.10
2017-05-10T10:59:43.720Z,7.60
2017-05-10T11:02:12.708Z,7.16
2017-05-10T11:04:41.654Z,7.28
2017-05-10T11:07:10.931Z,7.12
2017-05-10T11:09:39.884Z,7.58
2017-05-10T11:12:08.841Z,7.20
2017-05-10T11:14:37.723Z,7.00
2017-05-10T11:17:06.777Z,6.72
2017-05-10T11:19:36.103Z,7.70
2017-05-10T11:22:05.058Z,7.16
2017-05-10T11:24:34.016Z,6.58
2017-05-10T11:27:03.007Z,7.74
2017-05-10T11:29:32.701Z,7.12
2017-05-10T11:32:01.707Z,6.36
2017-05-10T11:34:30.660Z,6.88
2017-05-10T11:36:59.642Z,7.30
2017-05-10T11:39:28.605Z,7.20
2017-05-10T11:41:57.853Z,6.36
2017-05-10T11:44:26.823Z,6.80
2017-05-10T11:46:55.804Z,5.78
2017-05-10T11:49:24.774Z,7.30
2017-05-10T11:51:53.732Z,6.44
2017-05-10T11:54:22.989Z,7.28
2017-05-10T11:56:51.948Z,6.26
2017-05-10T11:59:20.913Z,7.22
2017-05-10T12:01:50.870Z,6.02
2017-05-10T12:04:19.847Z,7.38
2017-05-10T12:06:49.194Z,5.48
2017-05-10T12:09:18.104Z,7.68
2017-05-10T12:11:47.737Z,6.68
2017-05-10T12:14:17.121Z,7.06
2017-05-10T12:16:46.824Z,7.52
2017-05-10T12:19:16.857Z,6.02
2017-05-10T12:21:45.814Z,5.70
2017-05-10T12:24:14.794Z,7.44
2017-05-10T12:26:43.993Z,7.32
2017-05-10T12:29:12.973Z,7.14
2017-05-10T12:31:41.942Z,6.14
2017-05-10T12:34:10.962Z,6.22
2017-05-10T12:36:39.936Z,7.18
2017-05-10T12:39:09.249Z,5.66
2017-05-10T12:41:38.285Z,6.50
2017-05-10T12:44:07.243Z,5.50
2017-05-10T12:46:36.526Z,5.26
2017-05-10T12:49:05.498Z,5.98
2017-05-10T12:51:34.459Z,4.50
2017-05-10T12:54:03.452Z,6.50
2017-05-10T12:56:32.406Z,5.64
2017-05-10T12:59:01.673Z,5.94
2017-05-10T13:01:30.630Z,5.74
2017-05-10T13:03:59.632Z,5.70
2017-05-10T13:06:28.603Z,6.38
2017-05-10T13:08:57.547Z,5.98
2017-05-10T13:11:27.531Z,5.90
2017-05-10T13:13:56.472Z,6.10
2017-05-10T13:16:25.427Z,6.42
2017-05-10T13:18:54.404Z,5.98
2017-05-10T13:21:23.383Z,6.78
2017-05-10T13:23:52.827Z,6.30
2017-05-10T13:26:21.784Z,6.32
2017-05-10T13:28:50.736Z,5.44
2017-05-10T13:31:20.046Z,5.60
2017-05-10T13:33:49.746Z,5.18
2017-05-10T13:36:18.687Z,6.58
2017-05-10T13:38:47.929Z,7.26
2017-05-10T13:41:17.538Z,6.68
2017-05-10T13:43:46.532Z,6.40
2017-05-10T13:46:16.617Z,7.06
2017-05-10T13:48:45.493Z,5.94
2017-05-10T13:51:14.490Z,5.16
2017-05-10T13:53:43.468Z,4.54
2017-05-10T13:56:12.425Z,4.58
2017-05-10T13:58:41.751Z,4.92
2017-05-10T14:01:10.696Z,6.32
2017-05-10T14:03:40.396Z,5.10
2017-05-10T14:06:09.406Z,5.20
2017-05-10T14:08:39.112Z,5.72
2017-05-10T14:11:08.452Z,6.18
2017-05-10T14:13:37.411Z,5.44
2017-05-10T14:16:06.374Z,5.14
2017-05-10T14:18:35.346Z,6.16
2017-05-10T14:21:04.302Z,5.36
2017-05-10T14:23:33.573Z,5.22
2017-05-10T14:26:03.257Z,5.02
2017-05-10T14:28:32.218Z,5.00
2017-05-10T14:31:01.456Z,5.60
2017-05-10T14:33:31.152Z,4.92
2017-05-10T14:36:01.092Z,4.12
2017-05-10T14:38:31.664Z,4.48
2017-05-10T14:41:00.678Z,4.56
2017-05-10T14:43:29.954Z,5.22
2017-05-10T14:45:58.931Z,5.02
2017-05-10T14:48:27.903Z,6.44
2017-05-10T14:50:57.240Z,5.20
2017-05-10T14:53:26.220Z,5.24
2017-05-10T14:55:55.842Z,5.20
2017-05-10T14:58:24.801Z,5.40
2017-05-10T15:00:53.752Z,5.88
2017-05-10T15:03:23.795Z,4.54
2017-05-10T15:05:52.771Z,4.72
2017-05-10T15:08:23.662Z,5.62
2017-05-10T15:10:52.640Z,4.76
2017-05-10T15:13:21.598Z,5.36
2017-05-10T15:15:50.558Z,4.72
2017-05-10T15:18:19.759Z,4.64
2017-05-10T15:20:49.100Z,4.80
2017-05-10T15:23:18.890Z,5.22
2017-05-10T15:25:47.843Z,4.08
2017-05-10T15:28:17.170Z,4.60
2017-05-10T15:30:46.880Z,4.24
2017-05-10T15:33:16.614Z,4.10
2017-05-10T15:35:45.873Z,3.96
2017-05-10T15:38:15.588Z,4.08
2017-05-10T15:40:45.634Z,3.40
2017-05-10T15:43:14.575Z,3.28
2017-05-10T15:45:43.524Z,4.14
2017-05-10T15:48:12.512Z,3.12
2017-05-10T15:50:41.457Z,3.32
2017-05-10T15:53:11.539Z,3.18
2017-05-10T15:55:40.485Z,3.38
2017-05-10T15:58:09.353Z,3.24
2017-05-10T16:00:38.647Z,3.28
2017-05-10T16:03:07.632Z,3.06
2017-05-10T16:05:36.607Z,3.40
2017-05-10T16:08:06.614Z,3.56
2017-05-10T16:10:35.581Z,4.00
2017-05-10T16:13:04.554Z,3.62
2017-05-10T16:15:33.534Z,3.78
2017-05-10T16:18:02.510Z,3.36
2017-05-10T16:20:32.501Z,3.40
2017-05-10T16:23:02.225Z,3.16
2017-05-10T16:25:31.208Z,2.76
2017-05-10T16:28:01.401Z,3.28
2017-05-10T16:30:30.373Z,3.12
2017-05-10T16:32:59.714Z,2.64
2017-05-10T16:35:28.674Z,3.00
2017-05-10T16:37:57.644Z,3.20
2017-05-10T16:40:26.635Z,3.10
2017-05-10T16:42:55.597Z,3.62
2017-05-10T16:45:25.586Z,4.00
2017-05-10T16:47:54.812Z,3.20
2017-05-10T16:50:24.503Z,3.10
2017-05-10T16:52:53.674Z,3.58
2017-05-10T16:55:23.408Z,4.80
2017-05-10T16:57:52.378Z,3.28
2017-05-10T17:00:21.669Z,4.82
2017-05-10T17:02:50.627Z,4.14
2017-05-10T17:05:19.576Z,3.40
2017-05-10T17:07:48.561Z,3.70
2017-05-10T17:10:17.521Z,8.18
2017-05-10T17:12:46.502Z,5.20
2017-05-10T17:15:15.450Z,4.08
2017-05-10T17:17:44.823Z,3.24
2017-05-10T17:20:13.839Z,3.84
2017-05-10T17:22:46.060Z,8.92
2017-05-10T17:25:16.374Z,13.58
2017-05-10T17:27:45.652Z,22.82
2017-05-10T17:30:14.629Z,102.66
2017-05-10T17:32:43.651Z,60.44
2017-05-10T17:35:13.801Z,11.96
2017-05-10T17:37:42.777Z,24.88
2017-05-10T17:40:11.766Z,59.44
2017-05-10T17:42:41.081Z,74.00
2017-05-10T17:45:10.061Z,32.56
2017-05-10T17:47:39.025Z,47.74
2017-05-10T17:50:08.034Z,56.44
2017-05-10T17:52:37.013Z,19.82
2017-05-10T17:55:06.329Z,15.48
2017-05-10T17:57:35.314Z,13.36
2017-05-10T18:00:04.285Z,9.08
2017-05-10T18:02:33.928Z,6.72
2017-05-10T18:05:02.883Z,8.06
2017-05-10T18:07:31.887Z,14.42
2017-05-10T18:10:00.872Z,10.34
2017-05-10T18:12:30.164Z,9.82
2017-05-10T18:14:59.475Z,35.74
2017-05-10T18:17:28.431Z,52.98
2017-05-10T18:19:57.799Z,28.52
2017-05-10T18:22:26.776Z,25.46
2017-05-10T18:24:55.755Z,8.34
2017-05-10T18:27:25.185Z,4.86
2017-05-10T18:29:54.144Z,5.10
2017-05-10T18:32:23.111Z,3.14
2017-05-10T18:34:52.078Z,3.48
2017-05-10T18:37:21.799Z,2.94
2017-05-10T18:39:51.082Z,3.12
2017-05-10T18:42:21.961Z,2.72
2017-05-10T18:44:50.967Z,3.18
2017-05-10T18:47:19.944Z,3.36
2017-05-10T18:49:48.945Z,3.04
2017-05-10T18:52:17.978Z,3.10
2017-05-10T18:54:47.706Z,3.56
2017-05-10T18:57:16.693Z,3.26
2017-05-10T18:59:45.697Z,3.52
2017-05-10T19:02:14.713Z,4.12
2017-05-10T19:04:43.689Z,3.14
2017-05-10T19:07:13.035Z,3.58
2017-05-10T19:09:42.028Z,3.52
2017-05-10T19:12:11.014Z,3.46
2017-05-10T19:14:40.018Z,3.28
2017-05-10T19:17:09.026Z,4.12
2017-05-10T19:19:39.019Z,2.92
2017-05-10T19:22:07.989Z,3.80
2017-05-10T19:24:36.957Z,3.30
2017-05-10T19:27:06.031Z,3.25
2017-05-10T19:29:35.010Z,3.92
2017-05-10T19:32:04.775Z,3.53
2017-05-10T19:34:33.785Z,3.38
2017-05-10T19:37:03.075Z,4.53
2017-05-10T19:39:32.120Z,4.47
2017-05-10T19:42:03.245Z,4.87
2017-05-10T19:44:32.280Z,5.07
2017-05-10T19:47:01.226Z,4.50
2017-05-10T19:49:30.247Z,3.85
2017-05-10T19:51:59.229Z,3.78
2017-05-10T19:54:28.564Z,3.95
2017-05-10T19:56:57.564Z,4.18
2017-05-10T19:59:33.359Z,4.20
2017-05-10T20:02:02.329Z,4.35
2017-05-10T20:04:32.058Z,4.60
2017-05-10T20:07:01.351Z,4.78
2017-05-10T20:09:31.050Z,4.63
2017-05-10T20:12:00.795Z,5.23
2017-05-10T20:14:30.173Z,4.53
2017-05-10T20:17:01.781Z,5.27
2017-05-10T20:19:31.085Z,4.42
2017-05-10T20:22:02.201Z,7.65
2017-05-10T20:24:31.507Z,6.40
2017-05-10T20:27:00.458Z,5.37
2017-05-10T20:29:29.423Z,4.73
2017-05-10T20:31:59.505Z,5.07
2017-05-10T20:34:28.494Z,5.15
2017-05-10T20:36:57.457Z,4.77
2017-05-10T20:39:32.806Z,4.80
2017-05-10T20:42:02.435Z,4.68
2017-05-10T20:44:31.746Z,5.05
2017-05-10T20:47:00.705Z,5.08
2017-05-10T20:49:29.648Z,4.18
2017-05-10T20:51:59.379Z,4.90
2017-05-10T20:54:28.349Z,4.40
2017-05-10T20:56:58.425Z,4.92
2017-05-10T20:59:28.282Z,5.38
2017-05-10T21:01:58.355Z,5.57
2017-05-10T21:04:27.298Z,5.57
2017-05-10T21:06:56.988Z,5.88
2017-05-10T21:09:26.257Z,5.62
2017-05-10T21:11:55.242Z,5.38
2017-05-10T21:14:24.241Z,5.88
2017-05-10T21:16:53.207Z,5.55
2017-05-10T21:19:22.167Z,6.60
2017-05-10T21:21:51.870Z,6.50
2017-05-10T21:24:21.561Z,6.78
2017-05-10T21:26:50.548Z,5.87
2017-05-10T21:29:19.505Z,6.75
2017-05-10T21:31:48.790Z,7.43
2017-05-10T21:34:17.803Z,7.73
2017-05-10T21:36:47.506Z,6.88
2017-05-10T21:39:16.811Z,7.58
2017-05-10T21:41:45.784Z,7.28
2017-05-10T21:44:15.501Z,8.62
2017-05-10T21:46:44.800Z,8.33
2017-05-10T21:49:13.752Z,7.85
2017-05-10T21:51:42.728Z,8.20
2017-05-10T21:54:12.430Z,7.80
2017-05-10T21:56:41.410Z,7.63
2017-05-10T21:59:10.661Z,8.43
2017-05-10T22:01:39.610Z,9.83
2017-05-10T22:04:09.613Z,7.02
2017-05-10T22:06:38.602Z,8.27
2017-05-10T22:09:07.605Z,8.12
2017-05-10T22:11:37.624Z,8.88
2017-05-10T22:14:07.313Z,8.55
2017-05-10T22:16:36.322Z,8.95
2017-05-10T22:19:06.054Z,7.90
2017-05-10T22:21:35.029Z,8.17
2017-05-10T22:24:04.761Z,8.63
2017-05-10T22:26:33.721Z,9.45
2017-05-10T22:29:10.183Z,7.70
2017-05-10T22:31:39.883Z,7.92
2017-05-10T22:34:08.836Z,8.43
2017-05-10T22:36:38.083Z,8.23
2017-05-10T22:39:08.954Z,9.02
2017-05-10T22:41:37.927Z,7.15
2017-05-10T22:44:06.814Z,8.55
2017-05-10T22:46:35.797Z,9.05
2017-05-10T22:49:05.517Z,8.78
2017-05-10T22:51:34.897Z,8.92
2017-05-10T22:54:04.605Z,7.95
2017-05-10T22:56:34.330Z,9.73
2017-05-10T22:59:04.022Z,9.83
2017-05-10T23:01:33.709Z,9.33
2017-05-10T23:04:02.673Z,9.72
2017-05-10T23:06:31.634Z,9.48
2017-05-10T23:09:02.151Z,10.25
2017-05-10T23:11:34.640Z,9.78
2017-05-10T23:14:03.892Z,9.55
2017-05-10T23:16:32.869Z,8.75
2017-05-10T23:19:01.820Z,9.82
2017-05-10T23:21:30.879Z,9.28
2017-05-10T23:24:00.598Z,8.75
2017-05-10T23:26:30.336Z,9.42
2017-05-10T23:28:59.289Z,10.17
2017-05-10T23:31:29.388Z,9.43
2017-05-10T23:33:58.356Z,9.00
2017-05-10T23:36:27.322Z,9.18
2017-05-10T23:38:56.336Z,10.07
2017-05-10T23:41:25.274Z,10.07
2017-05-10T23:43:54.986Z,8.53
2017-05-10T23:46:24.693Z,8.13
2017-05-10T23:48:54.424Z,8.22
2017-05-10T23:51:23.365Z,8.02
2017-05-10T23:53:53.139Z,8.35
2017-05-10T23:56:22.135Z,9.37
2017-05-10T23:58:51.100Z,8.67
